createdAt,value
2023-03-31T00:00:16.294Z,10.69
2023-03-31T00:02:21.869Z,10.68
2023-03-31T00:04:24.318Z,10.68
2023-03-31T00:06:25.868Z,10.59
2023-03-31T00:08:30.327Z,10.57
2023-03-31T00:10:34.143Z,10.52
2023-03-31T00:12:35.528Z,10.49
2023-03-31T00:14:36.942Z,10.42
2023-03-31T00:16:39.350Z,10.41
2023-03-31T00:18:47.243Z,10.38
2023-03-31T00:20:48.669Z,10.32
2023-03-31T00:22:50.132Z,10.30
2023-03-31T00:24:51.642Z,10.29
2023-03-31T00:26:53.047Z,10.24
2023-03-31T00:28:54.605Z,10.28
2023-03-31T00:31:00.324Z,10.26
2023-03-31T00:33:01.831Z,10.21
2023-03-31T00:35:04.098Z,10.27
2023-03-31T00:37:05.550Z,10.26
2023-03-31T00:39:09.260Z,10.25
2023-03-31T00:41:10.957Z,10.24
2023-03-31T00:43:26.576Z,10.20
2023-03-31T00:45:31.417Z,10.15
2023-03-31T00:47:33.348Z,10.14
2023-03-31T00:49:40.370Z,10.17
2023-03-31T00:51:43.578Z,10.16
2023-03-31T00:56:04.888Z,10.12
2023-03-31T00:58:07.872Z,10.12
2023-03-31T01:00:15.446Z,10.12
2023-03-31T01:02:20.473Z,10.12
2023-03-31T01:04:22.730Z,10.14
2023-03-31T01:06:25.302Z,10.14
2023-03-31T01:08:28.386Z,10.15
2023-03-31T01:10:33.237Z,10.18
2023-03-31T01:12:38.075Z,10.22
2023-03-31T01:14:39.768Z,10.20
2023-03-31T01:16:41.698Z,10.20
2023-03-31T01:18:46.244Z,10.23
2023-03-31T01:21:18.721Z,10.26
2023-03-31T01:23:35.076Z,10.25
2023-03-31T01:26:01.490Z,10.29
2023-03-31T01:28:17.417Z,10.25
2023-03-31T01:31:07.483Z,10.23
2023-03-31T01:33:44.543Z,10.20
2023-03-31T01:36:15.671Z,10.19
2023-03-31T01:38:57.339Z,10.16
2023-03-31T01:41:12.102Z,10.18
2023-03-31T01:43:41.618Z,10.17
2023-03-31T01:46:11.293Z,10.16
2023-03-31T01:48:18.356Z,10.15
2023-03-31T01:50:32.898Z,10.15
2023-03-31T01:52:49.791Z,10.14
2023-03-31T01:55:12.560Z,10.11
2023-03-31T01:57:35.169Z,10.14
2023-03-31T02:00:00.652Z,10.09
2023-03-31T02:02:13.112Z,10.03
2023-03-31T02:04:24.597Z,10.04
2023-03-31T02:06:34.773Z,10.02
2023-03-31T02:08:45.307Z,9.97
2023-03-31T02:10:48.038Z,9.98
2023-03-31T02:12:51.492Z,9.94
2023-03-31T02:14:56.659Z,9.93
2023-03-31T02:17:02.304Z,9.88
2023-03-31T02:19:06.009Z,9.91
2023-03-31T02:21:08.774Z,9.89
2023-03-31T02:23:13.897Z,9.93
2023-03-31T02:25:19.374Z,9.94
2023-03-31T02:27:31.459Z,9.90
2023-03-31T02:29:33.146Z,9.89
2023-03-31T02:31:57.746Z,9.92
2023-03-31T02:33:59.555Z,9.93
2023-03-31T02:36:02.011Z,9.92
2023-03-31T02:38:06.680Z,9.94
2023-03-31T02:40:15.807Z,9.93
2023-03-31T02:42:18.234Z,9.93
2023-03-31T02:44:26.902Z,9.91
2023-03-31T02:46:29.096Z,9.94
2023-03-31T02:48:46.577Z,9.97
2023-03-31T02:50:59.540Z,9.95
2023-03-31T02:53:20.369Z,9.96
2023-03-31T02:55:57.440Z,9.94
2023-03-31T02:58:27.465Z,9.92
2023-03-31T03:00:54.650Z,9.91
2023-03-31T03:03:04.998Z,9.93
2023-03-31T03:05:20.110Z,9.88
2023-03-31T03:07:39.863Z,9.88
2023-03-31T03:10:10.327Z,9.90
2023-03-31T03:12:22.448Z,9.85
2023-03-31T03:14:38.738Z,9.87
2023-03-31T03:16:48.129Z,9.86
2023-03-31T03:19:01.663Z,9.87
2023-03-31T03:21:03.446Z,9.84
2023-03-31T03:23:04.950Z,9.85
2023-03-31T03:25:09.555Z,9.84
2023-03-31T03:27:11.017Z,9.83
2023-03-31T03:29:14.644Z,9.81
2023-03-31T03:31:16.740Z,9.84
2023-03-31T03:33:18.316Z,9.81
2023-03-31T03:35:19.823Z,9.82
2023-03-31T03:37:21.277Z,9.80
2023-03-31T03:39:22.746Z,9.81
2023-03-31T03:41:24.237Z,9.81
2023-03-31T03:43:25.925Z,9.80
2023-03-31T03:45:27.325Z,9.79
2023-03-31T03:47:29.084Z,9.80
2023-03-31T03:49:30.581Z,9.82
2023-03-31T03:51:32.016Z,9.80
2023-03-31T03:53:33.482Z,9.78
2023-03-31T03:55:34.859Z,9.77
2023-03-31T03:57:36.579Z,9.81
2023-03-31T03:59:38.003Z,9.77
2023-03-31T04:01:39.515Z,9.79
2023-03-31T04:03:40.920Z,9.75
2023-03-31T04:05:42.631Z,9.78
2023-03-31T04:07:44.021Z,9.78
2023-03-31T04:09:45.611Z,9.79
2023-03-31T04:11:47.009Z,9.81
2023-03-31T04:13:48.461Z,9.80
2023-03-31T04:15:49.940Z,9.80
2023-03-31T04:17:54.799Z,9.79
2023-03-31T04:20:01.921Z,9.79
2023-03-31T04:22:04.844Z,9.79
2023-03-31T04:24:06.758Z,9.80
2023-03-31T04:26:11.828Z,9.81
2023-03-31T04:28:14.565Z,9.79
2023-03-31T04:30:23.303Z,9.78
2023-03-31T04:32:24.823Z,9.79
2023-03-31T04:34:34.874Z,9.79
2023-03-31T04:36:42.499Z,9.80
2023-03-31T04:38:50.955Z,9.80
2023-03-31T04:40:53.456Z,9.77
2023-03-31T04:42:54.839Z,9.79
2023-03-31T04:44:56.198Z,9.80
2023-03-31T04:46:59.150Z,9.79
2023-03-31T04:49:01.498Z,9.77
2023-03-31T04:51:03.791Z,9.75
2023-03-31T04:53:05.952Z,9.74
2023-03-31T04:55:07.912Z,9.78
2023-03-31T04:57:09.662Z,9.76
2023-03-31T04:59:11.299Z,9.79
2023-03-31T05:01:18.101Z,9.82
2023-03-31T05:03:20.077Z,9.81
2023-03-31T05:05:21.994Z,9.79
2023-03-31T05:07:23.434Z,9.79
2023-03-31T05:09:24.863Z,9.77
2023-03-31T05:11:27.386Z,9.79
2023-03-31T05:13:28.840Z,9.76
2023-03-31T05:15:30.346Z,9.78
2023-03-31T05:17:33.028Z,9.81
2023-03-31T05:19:34.643Z,9.75
2023-03-31T05:21:38.046Z,9.77
2023-03-31T05:23:39.525Z,9.73
2023-03-31T05:25:42.281Z,9.75
2023-03-31T05:27:44.182Z,9.73
2023-03-31T05:29:45.758Z,9.73
2023-03-31T05:31:47.372Z,9.71
2023-03-31T05:33:49.003Z,9.72
2023-03-31T05:35:50.444Z,9.73
2023-03-31T05:37:51.937Z,9.74
2023-03-31T05:39:53.846Z,9.70
2023-03-31T05:41:55.278Z,9.68
2023-03-31T05:43:56.717Z,9.69
2023-03-31T05:45:58.198Z,9.69
2023-03-31T05:48:00.481Z,9.69
2023-03-31T05:50:03.994Z,9.69
2023-03-31T05:52:06.811Z,9.68
2023-03-31T05:54:08.808Z,9.67
2023-03-31T05:56:10.729Z,9.70
2023-03-31T05:58:12.127Z,9.71
2023-03-31T06:00:14.425Z,9.70
2023-03-31T06:02:15.963Z,9.73
2023-03-31T06:04:17.530Z,9.72
2023-03-31T06:06:19.418Z,9.74
2023-03-31T06:08:20.879Z,9.73
2023-03-31T06:10:22.274Z,9.78
2023-03-31T06:12:23.896Z,9.74
2023-03-31T06:14:25.622Z,9.77
2023-03-31T06:16:28.898Z,9.80
2023-03-31T06:18:32.598Z,9.78
2023-03-31T06:20:34.044Z,9.82
2023-03-31T06:22:35.554Z,9.79
2023-03-31T06:24:37.010Z,9.82
2023-03-31T06:26:38.468Z,9.78
2023-03-31T06:28:40.219Z,9.79
2023-03-31T06:30:42.497Z,9.78
2023-03-31T06:32:44.081Z,9.84
2023-03-31T06:34:45.540Z,9.82
2023-03-31T06:36:46.972Z,9.81
2023-03-31T06:38:49.006Z,9.79
2023-03-31T06:40:50.527Z,9.82
2023-03-31T06:42:51.950Z,9.77
2023-03-31T06:44:55.805Z,9.81
2023-03-31T06:46:57.362Z,9.84
2023-03-31T06:48:58.871Z,9.86
2023-03-31T06:51:02.598Z,9.82
2023-03-31T06:53:04.252Z,9.81
2023-03-31T06:55:06.082Z,9.82
2023-03-31T06:57:07.796Z,9.85
2023-03-31T06:59:09.333Z,9.84
2023-03-31T07:01:11.791Z,9.86
2023-03-31T07:03:14.631Z,9.89
2023-03-31T07:05:16.268Z,9.87
2023-03-31T07:07:18.412Z,9.83
2023-03-31T07:09:23.365Z,9.86
2023-03-31T07:11:24.921Z,9.82
2023-03-31T07:13:27.161Z,9.83
2023-03-31T07:15:28.688Z,9.81
2023-03-31T07:17:30.151Z,9.84
2023-03-31T07:19:31.671Z,9.80
2023-03-31T07:21:33.064Z,9.78
2023-03-31T07:23:35.689Z,9.80
2023-03-31T07:25:37.216Z,9.77
2023-03-31T07:27:38.822Z,9.73
2023-03-31T07:29:40.261Z,9.79
2023-03-31T07:31:41.667Z,9.79
2023-03-31T07:33:43.172Z,9.74
2023-03-31T07:35:46.995Z,9.74
2023-03-31T07:37:53.132Z,9.73
2023-03-31T07:39:54.535Z,9.73
2023-03-31T07:41:55.979Z,9.70
2023-03-31T07:43:57.444Z,9.70
2023-03-31T07:45:58.940Z,9.75
2023-03-31T07:48:00.495Z,9.77
2023-03-31T07:50:02.489Z,9.79
2023-03-31T07:52:03.973Z,9.84
2023-03-31T07:54:05.656Z,9.82
2023-03-31T07:56:07.306Z,9.85
2023-03-31T07:58:08.932Z,9.89
2023-03-31T08:00:12.486Z,9.90
2023-03-31T08:02:16.820Z,9.91
2023-03-31T08:04:18.337Z,9.94
2023-03-31T08:06:22.162Z,9.86
2023-03-31T08:08:23.677Z,9.97
2023-03-31T08:10:27.265Z,10.00
2023-03-31T08:12:28.730Z,10.03
2023-03-31T08:14:40.743Z,10.00
2023-03-31T08:16:43.095Z,10.12
2023-03-31T08:18:44.662Z,10.17
2023-03-31T08:20:48.320Z,10.13
2023-03-31T08:22:51.519Z,10.14
2023-03-31T08:24:52.894Z,10.13
2023-03-31T08:26:54.481Z,10.16
2023-03-31T08:28:59.060Z,10.29
2023-03-31T08:31:05.988Z,10.21
2023-03-31T08:33:07.852Z,10.31
2023-03-31T08:35:09.952Z,10.41
2023-03-31T08:37:11.724Z,10.49
2023-03-31T08:39:13.893Z,10.50
2023-03-31T08:41:35.225Z,10.61
2023-03-31T08:43:48.452Z,10.83
2023-03-31T08:45:50.025Z,10.99
2023-03-31T08:47:59.152Z,11.01
2023-03-31T08:50:06.944Z,11.08
2023-03-31T08:52:14.800Z,11.06
2023-03-31T08:54:32.872Z,10.90
2023-03-31T08:56:37.836Z,11.00
2023-03-31T08:58:43.531Z,10.99
2023-03-31T09:01:05.862Z,11.16
2023-03-31T09:03:23.631Z,11.29
2023-03-31T09:05:59.417Z,11.17
2023-03-31T09:08:09.781Z,11.15
2023-03-31T09:10:29.181Z,11.31
2023-03-31T09:12:46.490Z,11.42
2023-03-31T09:15:28.288Z,11.39
2023-03-31T09:17:33.772Z,11.51
2023-03-31T09:20:10.420Z,11.63
2023-03-31T09:22:19.914Z,11.78
2023-03-31T09:24:28.984Z,12.01
2023-03-31T09:26:39.194Z,12.12
2023-03-31T09:28:40.837Z,12.25
2023-03-31T09:30:42.816Z,12.30
2023-03-31T09:32:48.132Z,12.34
2023-03-31T09:34:57.488Z,12.36
2023-03-31T09:36:59.158Z,12.27
2023-03-31T09:39:00.716Z,12.21
2023-03-31T09:41:03.559Z,12.34
2023-03-31T09:43:27.117Z,12.54
2023-03-31T09:45:30.673Z,12.67
2023-03-31T09:47:39.031Z,12.63
2023-03-31T09:49:53.844Z,12.63
2023-03-31T09:52:07.142Z,12.66
2023-03-31T09:54:34.513Z,12.60
2023-03-31T09:56:42.260Z,12.55
2023-03-31T09:58:46.266Z,12.67
2023-03-31T10:01:02.388Z,12.76
2023-03-31T10:03:08.266Z,12.65
2023-03-31T10:05:43.273Z,12.63
2023-03-31T10:07:44.682Z,12.41
2023-03-31T10:09:46.274Z,12.47
2023-03-31T10:11:57.630Z,12.37
2023-03-31T10:14:06.731Z,12.24
2023-03-31T10:16:13.765Z,12.22
2023-03-31T10:18:18.661Z,12.33
2023-03-31T10:20:44.063Z,12.39
2023-03-31T10:22:45.686Z,12.44
2023-03-31T10:24:49.800Z,12.59
2023-03-31T10:26:55.424Z,12.57
2023-03-31T10:28:56.890Z,12.65
2023-03-31T10:31:04.072Z,12.67
2023-03-31T10:33:19.135Z,12.73
2023-03-31T10:35:35.046Z,12.95
2023-03-31T10:37:37.360Z,13.01
2023-03-31T10:39:39.818Z,12.97
2023-03-31T10:41:41.769Z,12.93
2023-03-31T10:43:49.994Z,12.98
2023-03-31T10:45:56.406Z,13.00
2023-03-31T10:48:00.338Z,13.04
2023-03-31T10:50:05.306Z,12.95
2023-03-31T10:52:43.097Z,12.78
2023-03-31T10:54:54.779Z,12.73
2023-03-31T10:56:59.135Z,12.64
2023-03-31T10:59:18.505Z,12.62
2023-03-31T11:01:19.826Z,12.66
2023-03-31T11:03:27.280Z,12.71
2023-03-31T11:05:54.678Z,12.87
2023-03-31T11:08:15.213Z,12.96
2023-03-31T11:11:01.565Z,13.13
2023-03-31T11:13:11.178Z,13.20
2023-03-31T11:15:35.741Z,13.36
2023-03-31T11:17:55.428Z,13.63
2023-03-31T11:19:58.072Z,13.66
2023-03-31T11:22:14.606Z,13.77
2023-03-31T11:24:47.044Z,13.96
2023-03-31T11:26:57.674Z,14.10
2023-03-31T11:29:18.321Z,14.26
2023-03-31T11:31:31.686Z,14.47
2023-03-31T11:34:04.595Z,14.56
2023-03-31T11:36:16.900Z,14.57
2023-03-31T11:38:36.764Z,14.37
2023-03-31T11:40:56.874Z,14.25
2023-03-31T11:43:21.180Z,13.70
2023-03-31T11:45:28.359Z,13.52
2023-03-31T11:47:34.768Z,13.24
2023-03-31T11:49:43.505Z,13.15
2023-03-31T11:52:09.960Z,12.50
2023-03-31T11:54:20.269Z,12.19
2023-03-31T11:56:24.962Z,12.43
2023-03-31T11:58:40.073Z,12.15
2023-03-31T12:00:47.124Z,12.10
2023-03-31T12:03:01.535Z,12.07
2023-03-31T12:05:04.996Z,12.07
2023-03-31T12:07:17.762Z,12.12
2023-03-31T12:09:43.408Z,12.11
2023-03-31T12:11:56.114Z,11.90
2023-03-31T12:14:27.623Z,11.96
2023-03-31T12:16:43.782Z,12.14
2023-03-31T12:19:14.331Z,12.28
2023-03-31T12:21:16.987Z,12.37
2023-03-31T12:23:22.718Z,12.54
2023-03-31T12:25:26.516Z,12.75
2023-03-31T12:27:49.468Z,12.73
2023-03-31T12:30:00.010Z,12.89
2023-03-31T12:32:07.448Z,12.94
2023-03-31T12:34:16.315Z,13.11
2023-03-31T12:36:55.722Z,13.30
2023-03-31T12:39:12.385Z,13.40
2023-03-31T12:41:19.807Z,13.52
2023-03-31T12:43:37.150Z,13.70
2023-03-31T12:46:17.883Z,13.62
2023-03-31T12:48:31.249Z,13.50
2023-03-31T12:51:09.632Z,13.75
2023-03-31T12:53:22.924Z,13.47
2023-03-31T12:55:40.454Z,13.43
2023-03-31T12:57:41.867Z,13.26
2023-03-31T12:59:44.969Z,13.12
2023-03-31T13:02:06.676Z,13.01
2023-03-31T13:04:12.129Z,13.17
2023-03-31T13:06:28.101Z,13.32
2023-03-31T13:08:51.388Z,13.58
2023-03-31T13:10:58.126Z,13.67
2023-03-31T13:13:14.679Z,13.88
2023-03-31T13:15:17.277Z,13.63
2023-03-31T13:17:24.569Z,13.24
2023-03-31T13:19:37.547Z,13.29
2023-03-31T13:21:56.176Z,13.51
2023-03-31T13:24:01.757Z,13.21
2023-03-31T13:26:03.701Z,12.94
2023-03-31T13:28:15.503Z,13.17
2023-03-31T13:30:35.754Z,13.48
2023-03-31T13:32:39.166Z,13.76
2023-03-31T13:34:49.679Z,13.96
2023-03-31T13:36:54.697Z,14.35
2023-03-31T13:39:17.615Z,14.46
2023-03-31T13:41:40.394Z,14.65
2023-03-31T13:43:53.019Z,14.16
2023-03-31T13:46:06.488Z,13.71
2023-03-31T13:48:45.024Z,13.54
2023-03-31T13:51:17.185Z,13.69
2023-03-31T13:53:46.992Z,13.57
2023-03-31T13:55:57.482Z,13.57
2023-03-31T13:58:30.006Z,13.77
2023-03-31T14:00:42.491Z,14.08
2023-03-31T14:03:04.194Z,14.48
2023-03-31T14:05:05.681Z,14.74
2023-03-31T14:07:17.004Z,14.69
2023-03-31T14:09:30.467Z,14.82
2023-03-31T14:11:32.714Z,14.57
2023-03-31T14:13:34.145Z,14.72
2023-03-31T14:15:39.198Z,14.67
2023-03-31T14:17:41.656Z,14.48
2023-03-31T14:20:10.550Z,14.36
2023-03-31T14:22:33.906Z,14.44
2023-03-31T14:24:38.228Z,14.30
2023-03-31T14:26:56.996Z,14.17
2023-03-31T14:29:11.115Z,14.04
2023-03-31T14:31:20.422Z,14.11
2023-03-31T14:33:31.973Z,14.58
2023-03-31T14:35:39.655Z,14.98
2023-03-31T14:37:41.209Z,15.24
2023-03-31T14:39:56.337Z,15.48
2023-03-31T14:42:11.877Z,15.73
2023-03-31T14:44:19.185Z,15.84
2023-03-31T14:46:22.105Z,15.77
2023-03-31T14:48:23.627Z,15.71
2023-03-31T14:50:35.034Z,15.33
2023-03-31T14:52:37.330Z,15.09
2023-03-31T14:54:38.717Z,14.70
2023-03-31T14:56:41.229Z,14.59
2023-03-31T14:58:48.150Z,14.43
2023-03-31T15:00:49.848Z,14.55
2023-03-31T15:02:51.954Z,14.66
2023-03-31T15:04:56.935Z,14.81
2023-03-31T15:07:01.578Z,14.82
2023-03-31T15:09:04.082Z,14.89
2023-03-31T15:11:12.941Z,15.14
2023-03-31T15:13:20.414Z,15.32
2023-03-31T15:15:22.533Z,15.09
2023-03-31T15:17:33.088Z,15.02
2023-03-31T15:19:35.810Z,14.95
2023-03-31T15:21:38.690Z,14.82
2023-03-31T15:23:40.558Z,14.67
2023-03-31T15:25:44.006Z,14.50
2023-03-31T15:27:49.971Z,14.32
2023-03-31T15:29:55.156Z,14.32
2023-03-31T15:31:58.691Z,14.30
2023-03-31T15:34:00.646Z,14.14
2023-03-31T15:36:03.514Z,14.13
2023-03-31T15:38:06.336Z,14.17
2023-03-31T15:40:28.804Z,13.99
2023-03-31T15:42:31.921Z,13.80
2023-03-31T15:44:46.349Z,13.58
2023-03-31T15:46:55.002Z,13.55
2023-03-31T15:48:56.493Z,13.37
2023-03-31T15:51:13.207Z,13.24
2023-03-31T15:53:32.013Z,12.91
2023-03-31T15:57:44.788Z,12.62
2023-03-31T15:59:56.469Z,12.66
2023-03-31T16:02:01.109Z,12.48
2023-03-31T16:04:08.563Z,12.50
2023-03-31T16:06:20.815Z,12.43
2023-03-31T16:08:27.450Z,12.29
2023-03-31T16:10:29.120Z,12.24
2023-03-31T16:12:37.770Z,12.19
2023-03-31T16:14:48.064Z,12.14
2023-03-31T16:17:02.132Z,12.03
2023-03-31T16:19:09.968Z,11.99
2023-03-31T16:21:13.756Z,11.94
2023-03-31T16:23:38.596Z,11.72
2023-03-31T16:25:41.591Z,11.70
2023-03-31T16:27:49.305Z,11.72
2023-03-31T16:29:50.996Z,11.80
2023-03-31T16:32:07.480Z,11.78
2023-03-31T16:34:11.197Z,11.78
2023-03-31T16:36:15.964Z,11.81
2023-03-31T16:38:18.049Z,11.77
2023-03-31T16:40:19.456Z,11.69
2023-03-31T16:42:21.073Z,11.58
2023-03-31T16:44:22.478Z,11.63
2023-03-31T16:46:24.697Z,11.59
2023-03-31T16:48:28.038Z,11.69
2023-03-31T16:50:29.553Z,11.63
2023-03-31T16:52:31.338Z,11.66
2023-03-31T16:54:32.742Z,11.74
2023-03-31T16:56:34.170Z,11.76
2023-03-31T16:58:37.694Z,11.88
2023-03-31T17:00:40.715Z,11.85
2023-03-31T17:02:42.396Z,11.77
2023-03-31T17:04:43.842Z,11.59
2023-03-31T17:06:45.562Z,11.60
2023-03-31T17:08:47.412Z,11.66
2023-03-31T17:10:59.564Z,11.60
2023-03-31T17:13:01.055Z,11.62
2023-03-31T17:15:02.472Z,11.56
2023-03-31T17:17:03.921Z,11.43
2023-03-31T17:19:05.596Z,11.42
2023-03-31T17:21:10.160Z,11.37
2023-03-31T17:23:11.971Z,11.41
2023-03-31T17:25:13.835Z,11.30
2023-03-31T17:27:15.630Z,11.23
2023-03-31T17:29:17.112Z,11.21
2023-03-31T17:31:21.110Z,11.04
2023-03-31T17:33:23.162Z,11.05
2023-03-31T17:35:25.829Z,11.03
2023-03-31T17:37:27.274Z,11.04
2023-03-31T17:39:29.381Z,10.99
2023-03-31T17:41:31.552Z,10.92
2023-03-31T17:43:33.381Z,10.87
2023-03-31T17:45:35.016Z,10.80
2023-03-31T17:47:36.461Z,10.77
2023-03-31T17:49:38.338Z,10.73
2023-03-31T17:51:40.523Z,10.73
2023-03-31T17:53:46.615Z,10.75
2023-03-31T17:55:48.033Z,10.72
2023-03-31T17:57:49.468Z,10.64
2023-03-31T17:59:51.139Z,10.62
2023-03-31T18:01:52.694Z,10.66
2023-03-31T18:03:57.827Z,10.57
2023-03-31T18:06:07.692Z,10.56
2023-03-31T18:08:09.184Z,10.56
2023-03-31T18:10:10.712Z,10.50
2023-03-31T18:12:12.106Z,10.46
2023-03-31T18:14:13.596Z,10.47
2023-03-31T18:16:15.506Z,10.46
2023-03-31T18:18:17.188Z,10.38
2023-03-31T18:20:19.284Z,10.40
2023-03-31T18:22:20.761Z,10.40
2023-03-31T18:24:22.597Z,10.37
2023-03-31T18:26:25.935Z,10.35
2023-03-31T18:28:27.436Z,10.34
2023-03-31T18:30:28.841Z,10.31
2023-03-31T18:32:30.725Z,10.26
2023-03-31T18:34:33.640Z,10.23
2023-03-31T18:36:35.898Z,10.22
2023-03-31T18:38:37.528Z,10.20
2023-03-31T18:40:38.945Z,10.16
2023-03-31T18:42:41.493Z,10.14
2023-03-31T18:44:43.102Z,10.15
2023-03-31T18:46:45.669Z,10.11
2023-03-31T18:48:47.264Z,10.10
2023-03-31T18:50:51.245Z,10.11
2023-03-31T18:52:54.342Z,10.08
2023-03-31T18:54:56.481Z,10.05
2023-03-31T18:56:57.889Z,10.01
2023-03-31T18:58:59.508Z,10.01
2023-03-31T19:01:03.735Z,10.02
2023-03-31T19:03:05.414Z,9.98
2023-03-31T19:05:07.173Z,9.99
2023-03-31T19:07:08.570Z,9.96
2023-03-31T19:09:10.065Z,9.94
2023-03-31T19:11:13.983Z,9.93
2023-03-31T19:13:16.060Z,9.91
2023-03-31T19:15:17.735Z,9.89
2023-03-31T19:17:19.828Z,9.87
2023-03-31T19:19:21.343Z,9.82
2023-03-31T19:21:22.931Z,9.87
2023-03-31T19:23:24.431Z,9.82
2023-03-31T19:25:25.890Z,9.81
2023-03-31T19:27:27.692Z,9.80
2023-03-31T19:29:30.279Z,9.83
2023-03-31T19:31:38.066Z,9.81
2023-03-31T19:33:39.570Z,9.78
2023-03-31T19:35:43.417Z,9.81
2023-03-31T19:37:45.796Z,9.76
2023-03-31T19:39:48.111Z,9.72
2023-03-31T19:41:49.564Z,9.78
2023-03-31T19:43:51.083Z,9.76
2023-03-31T19:45:54.074Z,9.75
2023-03-31T19:47:56.024Z,9.78
2023-03-31T19:49:57.457Z,9.76
2023-03-31T19:51:58.925Z,9.75
2023-03-31T19:54:00.789Z,9.70
2023-03-31T19:56:05.932Z,9.74
2023-03-31T19:58:07.890Z,9.72
2023-03-31T20:00:10.016Z,9.71
2023-03-31T20:02:13.721Z,9.68
2023-03-31T20:04:18.281Z,9.71
2023-03-31T20:06:23.152Z,9.72
2023-03-31T20:08:24.557Z,9.70
2023-03-31T20:10:26.351Z,9.69
2023-03-31T20:12:28.307Z,9.70
2023-03-31T20:14:30.241Z,9.72
2023-03-31T20:16:31.812Z,9.67
2023-03-31T20:18:34.545Z,9.73
2023-03-31T20:20:36.010Z,9.68
2023-03-31T20:22:37.430Z,9.64
2023-03-31T20:24:38.865Z,9.60
2023-03-31T20:26:40.422Z,9.62
2023-03-31T20:28:42.473Z,9.59
2023-03-31T20:30:43.871Z,9.62
2023-03-31T20:32:45.368Z,9.58
2023-03-31T20:34:46.983Z,9.58
2023-03-31T20:36:51.382Z,9.67
2023-03-31T20:38:53.853Z,9.63
2023-03-31T20:40:55.951Z,9.59
2023-03-31T20:42:57.384Z,9.56
2023-03-31T20:44:58.823Z,9.57
2023-03-31T20:47:00.593Z,9.55
2023-03-31T20:49:02.290Z,9.55
2023-03-31T20:51:05.565Z,9.53
2023-03-31T20:53:07.009Z,9.51
2023-03-31T20:55:08.863Z,9.51
2023-03-31T20:57:11.550Z,9.48
2023-03-31T20:59:15.079Z,9.49
2023-03-31T21:01:18.082Z,9.48
2023-03-31T21:03:19.669Z,9.51
2023-03-31T21:05:21.351Z,9.47
2023-03-31T21:07:22.862Z,9.44
2023-03-31T21:09:24.297Z,9.43
2023-03-31T21:11:26.218Z,9.43
2023-03-31T21:13:29.204Z,9.42
2023-03-31T21:15:30.886Z,9.38
2023-03-31T21:17:32.434Z,9.39
2023-03-31T21:19:34.036Z,9.34
2023-03-31T21:21:35.992Z,9.36
2023-03-31T21:23:37.988Z,9.35
2023-03-31T21:25:39.430Z,9.35
2023-03-31T21:27:40.921Z,9.30
2023-03-31T21:29:42.364Z,9.33
2023-03-31T21:31:45.941Z,9.28
2023-03-31T21:33:47.388Z,9.28
2023-03-31T21:35:49.193Z,9.24
2023-03-31T21:37:50.920Z,9.26
2023-03-31T21:39:52.293Z,9.24
2023-03-31T21:41:53.693Z,9.28
2023-03-31T21:43:55.822Z,9.26
2023-03-31T21:45:58.055Z,9.22
2023-03-31T21:47:59.498Z,9.29
2023-03-31T21:50:01.509Z,9.24
2023-03-31T21:52:04.429Z,9.23
2023-03-31T21:54:06.681Z,9.24
2023-03-31T21:56:08.197Z,9.23
2023-03-31T21:58:10.116Z,9.23
2023-03-31T22:00:13.535Z,9.28
2023-03-31T22:02:14.974Z,9.24
2023-03-31T22:04:17.078Z,9.24
2023-03-31T22:06:19.354Z,9.20
2023-03-31T22:08:20.781Z,9.21
2023-03-31T22:10:22.384Z,9.19
2023-03-31T22:12:24.260Z,9.19
2023-03-31T22:14:25.863Z,9.18
2023-03-31T22:16:27.461Z,9.18
2023-03-31T22:18:30.663Z,9.19
2023-03-31T22:20:32.713Z,9.19
2023-03-31T22:22:34.106Z,9.19
2023-03-31T22:24:35.851Z,9.20
2023-03-31T22:26:37.267Z,9.19
2023-03-31T22:28:38.699Z,9.18
2023-03-31T22:30:40.141Z,9.17
2023-03-31T22:32:41.682Z,9.16
2023-03-31T22:34:43.126Z,9.14
2023-03-31T22:36:44.548Z,9.15
2023-03-31T22:38:46.023Z,9.15
2023-03-31T22:40:47.412Z,9.16
2023-03-31T22:42:48.856Z,9.12
2023-03-31T22:44:50.320Z,9.13
2023-03-31T22:46:51.811Z,9.13
2023-03-31T22:48:53.290Z,9.13
2023-03-31T22:50:54.672Z,9.12
2023-03-31T22:52:56.088Z,9.14
2023-03-31T22:54:57.535Z,9.10
2023-03-31T22:56:59.183Z,9.10
2023-03-31T22:59:00.999Z,9.13
2023-03-31T23:01:02.851Z,9.09
2023-03-31T23:03:04.886Z,9.10
2023-03-31T23:05:07.013Z,9.12
2023-03-31T23:07:08.425Z,9.11
2023-03-31T23:09:09.976Z,9.13
2023-03-31T23:11:12.843Z,9.14
2023-03-31T23:13:14.239Z,9.14
2023-03-31T23:15:15.788Z,9.16
2023-03-31T23:17:17.234Z,9.11
2023-03-31T23:19:18.654Z,9.13
2023-03-31T23:21:25.644Z,9.11
2023-03-31T23:23:27.039Z,9.11
2023-03-31T23:25:28.456Z,9.13
2023-03-31T23:27:29.828Z,9.13
2023-03-31T23:29:31.642Z,9.12
2023-03-31T23:31:33.295Z,9.13
2023-03-31T23:33:34.782Z,9.12
2023-03-31T23:35:36.609Z,9.11
2023-03-31T23:37:38.108Z,9.11
2023-03-31T23:39:39.737Z,9.12
2023-03-31T23:41:41.198Z,9.08
2023-03-31T23:43:43.060Z,9.09
2023-03-31T23:45:44.501Z,9.05
2023-03-31T23:47:46.364Z,9.07
2023-03-31T23:49:47.843Z,9.11
2023-03-31T23:51:49.270Z,9.09
2023-03-31T23:53:51.011Z,9.07
2023-03-31T23:55:57.805Z,9.07
2023-03-31T23:57:59.627Z,9.06
